sensor_id;sensor_type;location;lat;lon;timestamp;P1;durP1;ratioP1;P2;durP2;ratioP2
73697;SDS011;62004;42.566;23.164;2022-12-24T00:01:04;0.90;;;0.63;;
73697;SDS011;62004;42.566;23.164;2022-12-24T00:03:30;1.27;;;0.73;;
73697;SDS011;62004;42.566;23.164;2022-12-24T00:05:56;0.70;;;0.63;;
73697;SDS011;62004;42.566;23.164;2022-12-24T00:08:21;1.77;;;0.43;;
73697;SDS011;62004;42.566;23.164;2022-12-24T00:10:50;0.90;;;0.43;;
73697;SDS011;62004;42.566;23.164;2022-12-24T00:13:17;1.42;;;0.77;;
73697;SDS011;62004;42.566;23.164;2022-12-24T00:15:42;0.95;;;0.65;;
73697;SDS011;62004;42.566;23.164;2022-12-24T00:18:08;0.50;;;0.45;;
73697;SDS011;62004;42.566;23.164;2022-12-24T00:20:33;0.98;;;0.65;;
73697;SDS011;62004;42.566;23.164;2022-12-24T00:22:58;0.70;;;0.68;;
73697;SDS011;62004;42.566;23.164;2022-12-24T00:25:24;0.73;;;0.65;;
73697;SDS011;62004;42.566;23.164;2022-12-24T00:27:49;0.90;;;0.60;;
73697;SDS011;62004;42.566;23.164;2022-12-24T00:30:14;0.80;;;0.52;;
73697;SDS011;62004;42.566;23.164;2022-12-24T00:32:40;1.00;;;0.68;;
73697;SDS011;62004;42.566;23.164;2022-12-24T00:35:06;0.50;;;0.30;;
73697;SDS011;62004;42.566;23.164;2022-12-24T00:37:31;2.22;;;0.98;;
73697;SDS011;62004;42.566;23.164;2022-12-24T00:39:57;1.30;;;0.82;;
73697;SDS011;62004;42.566;23.164;2022-12-24T00:42:22;1.42;;;0.95;;
73697;SDS011;62004;42.566;23.164;2022-12-24T00:44:47;1.88;;;0.98;;
73697;SDS011;62004;42.566;23.164;2022-12-24T00:47:13;0.80;;;0.43;;
73697;SDS011;62004;42.566;23.164;2022-12-24T00:49:38;0.98;;;0.57;;
73697;SDS011;62004;42.566;23.164;2022-12-24T00:52:04;0.75;;;0.50;;
73697;SDS011;62004;42.566;23.164;2022-12-24T00:54:29;0.75;;;0.50;;
73697;SDS011;62004;42.566;23.164;2022-12-24T00:56:55;1.20;;;0.93;;
73697;SDS011;62004;42.566;23.164;2022-12-24T00:59:20;1.13;;;0.73;;
73697;SDS011;62004;42.566;23.164;2022-12-24T01:01:45;2.80;;;0.80;;
73697;SDS011;62004;42.566;23.164;2022-12-24T01:04:11;1.20;;;0.90;;
73697;SDS011;62004;42.566;23.164;2022-12-24T01:06:55;1.85;;;0.57;;
73697;SDS011;62004;42.566;23.164;2022-12-24T01:09:20;2.25;;;0.70;;
73697;SDS011;62004;42.566;23.164;2022-12-24T01:11:45;1.10;;;0.55;;
73697;SDS011;62004;42.566;23.164;2022-12-24T01:14:11;1.45;;;1.00;;
73697;SDS011;62004;42.566;23.164;2022-12-24T01:16:36;1.23;;;1.10;;
73697;SDS011;62004;42.566;23.164;2022-12-24T01:19:02;1.13;;;0.77;;
73697;SDS011;62004;42.566;23.164;2022-12-24T01:21:27;1.45;;;1.13;;
73697;SDS011;62004;42.566;23.164;2022-12-24T01:23:52;2.85;;;0.93;;
73697;SDS011;62004;42.566;23.164;2022-12-24T01:26:18;1.50;;;0.90;;
73697;SDS011;62004;42.566;23.164;2022-12-24T01:28:43;1.42;;;0.85;;
73697;SDS011;62004;42.566;23.164;2022-12-24T01:31:09;1.45;;;0.50;;
73697;SDS011;62004;42.566;23.164;2022-12-24T01:33:36;1.35;;;0.80;;
73697;SDS011;62004;42.566;23.164;2022-12-24T01:36:02;1.40;;;0.98;;
73697;SDS011;62004;42.566;23.164;2022-12-24T01:38:27;1.73;;;0.95;;
73697;SDS011;62004;42.566;23.164;2022-12-24T01:40:53;1.80;;;1.00;;
73697;SDS011;62004;42.566;23.164;2022-12-24T01:43:37;1.33;;;0.90;;
73697;SDS011;62004;42.566;23.164;2022-12-24T01:46:03;1.58;;;1.02;;
73697;SDS011;62004;42.566;23.164;2022-12-24T01:48:57;2.08;;;1.23;;
73697;SDS011;62004;42.566;23.164;2022-12-24T01:51:37;2.25;;;1.05;;
73697;SDS011;62004;42.566;23.164;2022-12-24T01:54:05;1.92;;;1.30;;
73697;SDS011;62004;42.566;23.164;2022-12-24T01:56:34;1.77;;;1.17;;
73697;SDS011;62004;42.566;23.164;2022-12-24T01:59:03;1.88;;;1.25;;
73697;SDS011;62004;42.566;23.164;2022-12-24T02:01:31;1.13;;;0.90;;
73697;SDS011;62004;42.566;23.164;2022-12-24T02:03:56;2.13;;;1.38;;
73697;SDS011;62004;42.566;23.164;2022-12-24T02:06:21;1.85;;;1.42;;
73697;SDS011;62004;42.566;23.164;2022-12-24T02:08:47;2.10;;;1.48;;
73697;SDS011;62004;42.566;23.164;2022-12-24T02:11:19;2.53;;;1.35;;
73697;SDS011;62004;42.566;23.164;2022-12-24T02:13:53;2.42;;;1.38;;
73697;SDS011;62004;42.566;23.164;2022-12-24T02:22:03;2.35;;;1.10;;
73697;SDS011;62004;42.566;23.164;2022-12-24T02:30:21;2.22;;;1.17;;
73697;SDS011;62004;42.566;23.164;2022-12-24T02:37:58;1.63;;;1.10;;
73697;SDS011;62004;42.566;23.164;2022-12-24T02:40:28;1.83;;;0.93;;
73697;SDS011;62004;42.566;23.164;2022-12-24T02:42:59;1.58;;;1.30;;
73697;SDS011;62004;42.566;23.164;2022-12-24T02:45:28;1.30;;;1.20;;
73697;SDS011;62004;42.566;23.164;2022-12-24T02:47:55;1.65;;;1.13;;
73697;SDS011;62004;42.566;23.164;2022-12-24T02:50:21;1.67;;;1.40;;
73697;SDS011;62004;42.566;23.164;2022-12-24T02:52:47;1.50;;;1.40;;
73697;SDS011;62004;42.566;23.164;2022-12-24T03:00:20;2.67;;;1.10;;
73697;SDS011;62004;42.566;23.164;2022-12-24T03:11:23;3.92;;;1.42;;
73697;SDS011;62004;42.566;23.164;2022-12-24T03:13:49;1.30;;;0.80;;
73697;SDS011;62004;42.566;23.164;2022-12-24T03:16:16;1.50;;;1.00;;
73697;SDS011;62004;42.566;23.164;2022-12-24T03:18:46;2.00;;;0.82;;
73697;SDS011;62004;42.566;23.164;2022-12-24T03:21:16;1.95;;;0.77;;
73697;SDS011;62004;42.566;23.164;2022-12-24T03:24:02;1.20;;;0.50;;
73697;SDS011;62004;42.566;23.164;2022-12-24T03:26:28;1.70;;;1.10;;
73697;SDS011;62004;42.566;23.164;2022-12-24T03:28:55;2.05;;;1.00;;
73697;SDS011;62004;42.566;23.164;2022-12-24T03:31:20;1.77;;;0.90;;
73697;SDS011;62004;42.566;23.164;2022-12-24T03:33:46;1.35;;;0.80;;
73697;SDS011;62004;42.566;23.164;2022-12-24T03:36:11;1.52;;;1.33;;
73697;SDS011;62004;42.566;23.164;2022-12-24T03:38:37;1.75;;;0.95;;
73697;SDS011;62004;42.566;23.164;2022-12-24T03:41:03;1.73;;;0.95;;
73697;SDS011;62004;42.566;23.164;2022-12-24T03:43:28;1.52;;;1.15;;
73697;SDS011;62004;42.566;23.164;2022-12-24T03:45:54;2.10;;;1.20;;
73697;SDS011;62004;42.566;23.164;2022-12-24T03:48:19;1.77;;;1.20;;
73697;SDS011;62004;42.566;23.164;2022-12-24T03:50:45;2.42;;;1.50;;
73697;SDS011;62004;42.566;23.164;2022-12-24T03:53:10;1.92;;;1.33;;
73697;SDS011;62004;42.566;23.164;2022-12-24T03:55:36;2.28;;;1.63;;
73697;SDS011;62004;42.566;23.164;2022-12-24T03:58:02;2.38;;;1.35;;
73697;SDS011;62004;42.566;23.164;2022-12-24T04:00:27;2.38;;;1.27;;
73697;SDS011;62004;42.566;23.164;2022-12-24T04:02:53;1.90;;;1.02;;
73697;SDS011;62004;42.566;23.164;2022-12-24T04:05:18;1.55;;;0.85;;
73697;SDS011;62004;42.566;23.164;2022-12-24T04:07:44;2.03;;;1.27;;
73697;SDS011;62004;42.566;23.164;2022-12-24T04:10:10;2.22;;;1.55;;
73697;SDS011;62004;42.566;23.164;2022-12-24T04:12:37;1.58;;;1.08;;
73697;SDS011;62004;42.566;23.164;2022-12-24T04:15:02;2.13;;;1.00;;
73697;SDS011;62004;42.566;23.164;2022-12-24T04:17:28;1.38;;;1.15;;
73697;SDS011;62004;42.566;23.164;2022-12-24T04:19:53;1.60;;;1.05;;
73697;SDS011;62004;42.566;23.164;2022-12-24T04:22:19;1.20;;;1.08;;
73697;SDS011;62004;42.566;23.164;2022-12-24T04:24:44;1.88;;;0.90;;
73697;SDS011;62004;42.566;23.164;2022-12-24T04:27:11;1.50;;;1.10;;
73697;SDS011;62004;42.566;23.164;2022-12-24T04:29:37;1.90;;;1.33;;
73697;SDS011;62004;42.566;23.164;2022-12-24T04:32:03;1.77;;;1.40;;
73697;SDS011;62004;42.566;23.164;2022-12-24T04:34:28;2.45;;;1.48;;
73697;SDS011;62004;42.566;23.164;2022-12-24T04:36:54;4.50;;;2.47;;
73697;SDS011;62004;42.566;23.164;2022-12-24T04:39:19;4.75;;;2.38;;
73697;SDS011;62004;42.566;23.164;2022-12-24T04:41:44;3.97;;;2.42;;
73697;SDS011;62004;42.566;23.164;2022-12-24T04:44:10;5.47;;;2.30;;
73697;SDS011;62004;42.566;23.164;2022-12-24T04:46:35;5.55;;;2.63;;
73697;SDS011;62004;42.566;23.164;2022-12-24T04:49:01;4.53;;;2.70;;
73697;SDS011;62004;42.566;23.164;2022-12-24T04:51:26;8.15;;;4.50;;
73697;SDS011;62004;42.566;23.164;2022-12-24T04:53:52;8.25;;;3.95;;
73697;SDS011;62004;42.566;23.164;2022-12-24T04:56:19;5.63;;;3.88;;
73697;SDS011;62004;42.566;23.164;2022-12-24T04:58:46;3.05;;;2.03;;
73697;SDS011;62004;42.566;23.164;2022-12-24T05:01:17;3.05;;;2.55;;
73697;SDS011;62004;42.566;23.164;2022-12-24T05:03:44;4.00;;;2.00;;
73697;SDS011;62004;42.566;23.164;2022-12-24T05:06:11;2.00;;;1.27;;
73697;SDS011;62004;42.566;23.164;2022-12-24T05:08:37;3.10;;;2.47;;
73697;SDS011;62004;42.566;23.164;2022-12-24T05:11:03;2.03;;;1.33;;
73697;SDS011;62004;42.566;23.164;2022-12-24T05:13:29;3.25;;;1.17;;
73697;SDS011;62004;42.566;23.164;2022-12-24T05:15:55;1.92;;;1.17;;
73697;SDS011;62004;42.566;23.164;2022-12-24T05:18:20;2.67;;;1.73;;
73697;SDS011;62004;42.566;23.164;2022-12-24T05:20:46;2.40;;;1.52;;
73697;SDS011;62004;42.566;23.164;2022-12-24T05:23:18;1.83;;;1.20;;
73697;SDS011;62004;42.566;23.164;2022-12-24T05:26:04;1.33;;;1.05;;
73697;SDS011;62004;42.566;23.164;2022-12-24T05:28:51;2.25;;;1.35;;
73697;SDS011;62004;42.566;23.164;2022-12-24T05:33:44;2.88;;;0.98;;
73697;SDS011;62004;42.566;23.164;2022-12-24T05:36:09;2.95;;;1.40;;
73697;SDS011;62004;42.566;23.164;2022-12-24T05:38:35;1.77;;;1.08;;
73697;SDS011;62004;42.566;23.164;2022-12-24T05:41:00;1.70;;;1.38;;
73697;SDS011;62004;42.566;23.164;2022-12-24T05:43:25;2.58;;;1.20;;
73697;SDS011;62004;42.566;23.164;2022-12-24T05:45:51;1.45;;;0.88;;
73697;SDS011;62004;42.566;23.164;2022-12-24T05:48:24;2.22;;;1.45;;
73697;SDS011;62004;42.566;23.164;2022-12-24T05:50:50;2.03;;;1.33;;
73697;SDS011;62004;42.566;23.164;2022-12-24T05:53:15;2.00;;;1.48;;
73697;SDS011;62004;42.566;23.164;2022-12-24T05:55:41;8.45;;;4.22;;
73697;SDS011;62004;42.566;23.164;2022-12-24T05:58:06;15.48;;;9.20;;
73697;SDS011;62004;42.566;23.164;2022-12-24T06:00:32;3.50;;;2.88;;
73697;SDS011;62004;42.566;23.164;2022-12-24T06:02:57;1.90;;;1.27;;
73697;SDS011;62004;42.566;23.164;2022-12-24T06:05:23;3.60;;;3.05;;
73697;SDS011;62004;42.566;23.164;2022-12-24T06:07:48;2.97;;;2.25;;
73697;SDS011;62004;42.566;23.164;2022-12-24T06:10:13;2.33;;;1.75;;
73697;SDS011;62004;42.566;23.164;2022-12-24T06:12:39;40.88;;;19.08;;
73697;SDS011;62004;42.566;23.164;2022-12-24T06:15:04;8.98;;;5.95;;
73697;SDS011;62004;42.566;23.164;2022-12-24T06:17:30;3.20;;;2.42;;
73697;SDS011;62004;42.566;23.164;2022-12-24T06:19:55;2.30;;;1.83;;
73697;SDS011;62004;42.566;23.164;2022-12-24T06:22:21;2.15;;;1.20;;
73697;SDS011;62004;42.566;23.164;2022-12-24T06:24:46;2.00;;;1.25;;
73697;SDS011;62004;42.566;23.164;2022-12-24T06:27:12;2.38;;;1.80;;
73697;SDS011;62004;42.566;23.164;2022-12-24T06:29:37;2.80;;;1.92;;
73697;SDS011;62004;42.566;23.164;2022-12-24T06:32:02;2.45;;;1.92;;
73697;SDS011;62004;42.566;23.164;2022-12-24T06:34:28;4.85;;;2.22;;
73697;SDS011;62004;42.566;23.164;2022-12-24T06:36:53;3.33;;;2.22;;
73697;SDS011;62004;42.566;23.164;2022-12-24T06:39:18;3.85;;;2.83;;
73697;SDS011;62004;42.566;23.164;2022-12-24T06:41:44;5.20;;;3.05;;
73697;SDS011;62004;42.566;23.164;2022-12-24T06:44:09;4.35;;;2.45;;
73697;SDS011;62004;42.566;23.164;2022-12-24T06:46:34;5.97;;;3.03;;
73697;SDS011;62004;42.566;23.164;2022-12-24T06:49:00;6.07;;;3.30;;
73697;SDS011;62004;42.566;23.164;2022-12-24T06:51:25;6.60;;;3.92;;
73697;SDS011;62004;42.566;23.164;2022-12-24T06:53:51;9.43;;;5.28;;
73697;SDS011;62004;42.566;23.164;2022-12-24T06:56:17;22.20;;;7.32;;
73697;SDS011;62004;42.566;23.164;2022-12-24T06:58:43;17.23;;;6.28;;
73697;SDS011;62004;42.566;23.164;2022-12-24T07:01:10;14.18;;;5.38;;
73697;SDS011;62004;42.566;23.164;2022-12-24T07:03:37;13.85;;;5.38;;
73697;SDS011;62004;42.566;23.164;2022-12-24T07:06:02;5.93;;;2.28;;
73697;SDS011;62004;42.566;23.164;2022-12-24T07:08:28;5.80;;;1.48;;
73697;SDS011;62004;42.566;23.164;2022-12-24T07:10:53;1.95;;;1.58;;
73697;SDS011;62004;42.566;23.164;2022-12-24T07:13:19;2.30;;;1.30;;
73697;SDS011;62004;42.566;23.164;2022-12-24T07:15:44;2.08;;;1.35;;
73697;SDS011;62004;42.566;23.164;2022-12-24T07:18:10;2.30;;;1.48;;
73697;SDS011;62004;42.566;23.164;2022-12-24T07:20:36;4.30;;;3.20;;
73697;SDS011;62004;42.566;23.164;2022-12-24T07:23:01;4.68;;;2.35;;
73697;SDS011;62004;42.566;23.164;2022-12-24T07:25:27;2.17;;;1.38;;
73697;SDS011;62004;42.566;23.164;2022-12-24T07:27:52;3.92;;;1.40;;
73697;SDS011;62004;42.566;23.164;2022-12-24T07:30:17;2.35;;;1.45;;
73697;SDS011;62004;42.566;23.164;2022-12-24T07:32:43;3.22;;;1.88;;
73697;SDS011;62004;42.566;23.164;2022-12-24T07:35:08;2.00;;;1.33;;
73697;SDS011;62004;42.566;23.164;2022-12-24T07:37:34;2.72;;;1.40;;
73697;SDS011;62004;42.566;23.164;2022-12-24T07:39:59;3.13;;;1.50;;
73697;SDS011;62004;42.566;23.164;2022-12-24T07:42:25;1.42;;;1.20;;
73697;SDS011;62004;42.566;23.164;2022-12-24T07:44:50;3.47;;;2.08;;
73697;SDS011;62004;42.566;23.164;2022-12-24T07:47:15;1.92;;;1.73;;
73697;SDS011;62004;42.566;23.164;2022-12-24T07:49:41;1.50;;;1.08;;
73697;SDS011;62004;42.566;23.164;2022-12-24T07:52:06;2.05;;;1.55;;
73697;SDS011;62004;42.566;23.164;2022-12-24T07:54:32;1.90;;;1.17;;
73697;SDS011;62004;42.566;23.164;2022-12-24T07:56:57;1.50;;;1.17;;
73697;SDS011;62004;42.566;23.164;2022-12-24T07:59:22;2.20;;;1.35;;
73697;SDS011;62004;42.566;23.164;2022-12-24T08:01:48;2.47;;;1.50;;
73697;SDS011;62004;42.566;23.164;2022-12-24T08:04:13;2.00;;;1.60;;
73697;SDS011;62004;42.566;23.164;2022-12-24T08:06:39;2.45;;;1.30;;
73697;SDS011;62004;42.566;23.164;2022-12-24T08:09:04;3.78;;;1.48;;
73697;SDS011;62004;42.566;23.164;2022-12-24T08:11:30;2.55;;;1.75;;
73697;SDS011;62004;42.566;23.164;2022-12-24T08:13:55;2.55;;;1.70;;
73697;SDS011;62004;42.566;23.164;2022-12-24T08:16:20;2.35;;;1.77;;
73697;SDS011;62004;42.566;23.164;2022-12-24T08:18:46;4.78;;;1.85;;
73697;SDS011;62004;42.566;23.164;2022-12-24T08:21:11;2.20;;;1.40;;
73697;SDS011;62004;42.566;23.164;2022-12-24T08:23:36;3.08;;;1.52;;
73697;SDS011;62004;42.566;23.164;2022-12-24T08:26:05;2.88;;;1.40;;
73697;SDS011;62004;42.566;23.164;2022-12-24T08:28:31;3.22;;;1.75;;
73697;SDS011;62004;42.566;23.164;2022-12-24T08:30:56;2.22;;;1.48;;
73697;SDS011;62004;42.566;23.164;2022-12-24T08:33:23;2.92;;;1.60;;
73697;SDS011;62004;42.566;23.164;2022-12-24T08:35:49;2.47;;;1.52;;
73697;SDS011;62004;42.566;23.164;2022-12-24T08:38:15;1.63;;;1.40;;
73697;SDS011;62004;42.566;23.164;2022-12-24T08:40:40;3.08;;;1.85;;
73697;SDS011;62004;42.566;23.164;2022-12-24T08:43:06;1.27;;;1.00;;
73697;SDS011;62004;42.566;23.164;2022-12-24T08:45:32;3.35;;;1.55;;
73697;SDS011;62004;42.566;23.164;2022-12-24T08:48:00;2.00;;;1.40;;
73697;SDS011;62004;42.566;23.164;2022-12-24T08:50:25;2.10;;;1.63;;
73697;SDS011;62004;42.566;23.164;2022-12-24T08:52:52;19.65;;;10.82;;
73697;SDS011;62004;42.566;23.164;2022-12-24T08:55:17;34.88;;;20.92;;
73697;SDS011;62004;42.566;23.164;2022-12-24T08:57:43;40.92;;;23.08;;
73697;SDS011;62004;42.566;23.164;2022-12-24T09:00:10;37.00;;;21.27;;
73697;SDS011;62004;42.566;23.164;2022-12-24T09:02:36;42.22;;;23.73;;
73697;SDS011;62004;42.566;23.164;2022-12-24T09:05:01;37.65;;;21.25;;
73697;SDS011;62004;42.566;23.164;2022-12-24T09:07:27;35.38;;;21.15;;
73697;SDS011;62004;42.566;23.164;2022-12-24T09:09:52;37.25;;;20.50;;
73697;SDS011;62004;42.566;23.164;2022-12-24T09:12:18;44.67;;;21.02;;
73697;SDS011;62004;42.566;23.164;2022-12-24T09:14:43;32.42;;;19.13;;
73697;SDS011;62004;42.566;23.164;2022-12-24T09:17:08;37.45;;;19.77;;
73697;SDS011;62004;42.566;23.164;2022-12-24T09:19:34;33.55;;;20.98;;
73697;SDS011;62004;42.566;23.164;2022-12-24T09:21:59;27.73;;;17.08;;
73697;SDS011;62004;42.566;23.164;2022-12-24T09:24:24;32.72;;;18.67;;
73697;SDS011;62004;42.566;23.164;2022-12-24T09:26:50;29.80;;;16.60;;
73697;SDS011;62004;42.566;23.164;2022-12-24T09:29:15;24.65;;;15.50;;
73697;SDS011;62004;42.566;23.164;2022-12-24T09:31:41;20.08;;;9.85;;
73697;SDS011;62004;42.566;23.164;2022-12-24T09:34:06;39.17;;;21.85;;
73697;SDS011;62004;42.566;23.164;2022-12-24T09:36:32;54.05;;;25.15;;
73697;SDS011;62004;42.566;23.164;2022-12-24T09:38:58;56.67;;;28.60;;
73697;SDS011;62004;42.566;23.164;2022-12-24T09:44:16;45.40;;;25.08;;
73697;SDS011;62004;42.566;23.164;2022-12-24T09:46:46;49.72;;;25.88;;
73697;SDS011;62004;42.566;23.164;2022-12-24T09:49:14;50.33;;;27.48;;
73697;SDS011;62004;42.566;23.164;2022-12-24T09:51:44;58.30;;;29.67;;
73697;SDS011;62004;42.566;23.164;2022-12-24T09:54:19;53.00;;;27.20;;
73697;SDS011;62004;42.566;23.164;2022-12-24T09:56:48;50.60;;;25.98;;
73697;SDS011;62004;42.566;23.164;2022-12-24T09:59:19;37.15;;;21.10;;
73697;SDS011;62004;42.566;23.164;2022-12-24T10:01:47;45.13;;;23.50;;
73697;SDS011;62004;42.566;23.164;2022-12-24T10:04:14;36.70;;;20.83;;
73697;SDS011;62004;42.566;23.164;2022-12-24T10:12:16;20.45;;;11.40;;
73697;SDS011;62004;42.566;23.164;2022-12-24T10:25:15;13.27;;;7.35;;
73697;SDS011;62004;42.566;23.164;2022-12-24T10:27:42;11.90;;;7.05;;
73697;SDS011;62004;42.566;23.164;2022-12-24T10:30:12;11.23;;;6.53;;
73697;SDS011;62004;42.566;23.164;2022-12-24T10:32:38;8.63;;;5.03;;
73697;SDS011;62004;42.566;23.164;2022-12-24T10:35:14;9.73;;;5.28;;
73697;SDS011;62004;42.566;23.164;2022-12-24T10:37:44;52.75;;;27.42;;
73697;SDS011;62004;42.566;23.164;2022-12-24T10:40:57;43.53;;;21.70;;
73697;SDS011;62004;42.566;23.164;2022-12-24T10:43:23;25.92;;;14.48;;
73697;SDS011;62004;42.566;23.164;2022-12-24T10:45:51;29.40;;;15.18;;
73697;SDS011;62004;42.566;23.164;2022-12-24T10:48:33;52.92;;;25.88;;
73697;SDS011;62004;42.566;23.164;2022-12-24T10:51:02;53.58;;;29.08;;
73697;SDS011;62004;42.566;23.164;2022-12-24T10:53:37;45.00;;;25.23;;
73697;SDS011;62004;42.566;23.164;2022-12-24T10:58:32;23.27;;;12.85;;
73697;SDS011;62004;42.566;23.164;2022-12-24T11:00:58;59.13;;;28.38;;
73697;SDS011;62004;42.566;23.164;2022-12-24T11:03:27;52.30;;;26.52;;
73697;SDS011;62004;42.566;23.164;2022-12-24T11:06:28;55.67;;;28.75;;
73697;SDS011;62004;42.566;23.164;2022-12-24T11:08:47;52.88;;;27.52;;
73697;SDS011;62004;42.566;23.164;2022-12-24T11:13:38;63.60;;;26.40;;
73697;SDS011;62004;42.566;23.164;2022-12-24T11:18:31;41.40;;;20.98;;
73697;SDS011;62004;42.566;23.164;2022-12-24T11:20:58;28.85;;;16.23;;
73697;SDS011;62004;42.566;23.164;2022-12-24T11:23:25;25.20;;;14.98;;
73697;SDS011;62004;42.566;23.164;2022-12-24T11:25:51;24.08;;;13.02;;
73697;SDS011;62004;42.566;23.164;2022-12-24T11:28:21;23.33;;;13.07;;
73697;SDS011;62004;42.566;23.164;2022-12-24T11:30:58;12.50;;;6.43;;
73697;SDS011;62004;42.566;23.164;2022-12-24T11:33:23;7.18;;;4.60;;
73697;SDS011;62004;42.566;23.164;2022-12-24T11:35:53;25.85;;;13.68;;
73697;SDS011;62004;42.566;23.164;2022-12-24T11:38:22;47.60;;;26.15;;
73697;SDS011;62004;42.566;23.164;2022-12-24T11:40:56;44.33;;;24.05;;
73697;SDS011;62004;42.566;23.164;2022-12-24T11:43:26;55.45;;;27.35;;
73697;SDS011;62004;42.566;23.164;2022-12-24T11:46:12;49.00;;;26.40;;
73697;SDS011;62004;42.566;23.164;2022-12-24T11:48:40;52.42;;;27.05;;
73697;SDS011;62004;42.566;23.164;2022-12-24T11:51:06;53.35;;;27.92;;
73697;SDS011;62004;42.566;23.164;2022-12-24T11:53:45;55.28;;;26.55;;
73697;SDS011;62004;42.566;23.164;2022-12-24T11:56:26;52.20;;;26.33;;
73697;SDS011;62004;42.566;23.164;2022-12-24T11:59:00;52.95;;;25.85;;
73697;SDS011;62004;42.566;23.164;2022-12-24T12:01:35;54.80;;;27.15;;
73697;SDS011;62004;42.566;23.164;2022-12-24T12:04:14;52.38;;;27.85;;
73697;SDS011;62004;42.566;23.164;2022-12-24T12:06:44;53.83;;;28.10;;
73697;SDS011;62004;42.566;23.164;2022-12-24T12:09:17;56.25;;;29.00;;
73697;SDS011;62004;42.566;23.164;2022-12-24T12:11:47;55.08;;;28.80;;
73697;SDS011;62004;42.566;23.164;2022-12-24T12:14:20;52.60;;;30.63;;
73697;SDS011;62004;42.566;23.164;2022-12-24T12:17:05;51.83;;;28.05;;
73697;SDS011;62004;42.566;23.164;2022-12-24T12:20:05;52.63;;;28.15;;
73697;SDS011;62004;42.566;23.164;2022-12-24T12:22:44;47.13;;;24.98;;
73697;SDS011;62004;42.566;23.164;2022-12-24T12:25:20;45.15;;;23.98;;
73697;SDS011;62004;42.566;23.164;2022-12-24T12:27:48;46.67;;;24.00;;
73697;SDS011;62004;42.566;23.164;2022-12-24T12:30:17;47.45;;;22.90;;
73697;SDS011;62004;42.566;23.164;2022-12-24T12:35:17;41.72;;;22.40;;
73697;SDS011;62004;42.566;23.164;2022-12-24T12:37:58;41.67;;;20.88;;
73697;SDS011;62004;42.566;23.164;2022-12-24T12:46:05;41.20;;;20.10;;
73697;SDS011;62004;42.566;23.164;2022-12-24T12:56:29;39.28;;;20.80;;
73697;SDS011;62004;42.566;23.164;2022-12-24T12:59:01;35.35;;;19.73;;
73697;SDS011;62004;42.566;23.164;2022-12-24T13:18:36;35.33;;;19.60;;
73697;SDS011;62004;42.566;23.164;2022-12-24T13:21:19;35.92;;;19.13;;
73697;SDS011;62004;42.566;23.164;2022-12-24T13:23:46;44.38;;;21.33;;
73697;SDS011;62004;42.566;23.164;2022-12-24T13:26:12;40.42;;;19.65;;
73697;SDS011;62004;42.566;23.164;2022-12-24T13:28:38;42.03;;;21.15;;
73697;SDS011;62004;42.566;23.164;2022-12-24T13:36:02;36.53;;;19.00;;
73697;SDS011;62004;42.566;23.164;2022-12-24T13:38:31;43.17;;;21.45;;
73697;SDS011;62004;42.566;23.164;2022-12-24T13:54:46;19.85;;;11.00;;
73697;SDS011;62004;42.566;23.164;2022-12-24T13:57:36;31.02;;;15.00;;
73697;SDS011;62004;42.566;23.164;2022-12-24T14:00:02;27.48;;;15.05;;
73697;SDS011;62004;42.566;23.164;2022-12-24T14:02:30;25.67;;;15.50;;
73697;SDS011;62004;42.566;23.164;2022-12-24T14:04:59;41.42;;;21.92;;
73697;SDS011;62004;42.566;23.164;2022-12-24T14:07:25;37.45;;;20.45;;
73697;SDS011;62004;42.566;23.164;2022-12-24T14:09:51;48.33;;;25.05;;
73697;SDS011;62004;42.566;23.164;2022-12-24T14:18:16;8.23;;;4.40;;
73697;SDS011;62004;42.566;23.164;2022-12-24T14:20:52;6.57;;;4.45;;
73697;SDS011;62004;42.566;23.164;2022-12-24T14:23:41;7.30;;;4.07;;
73697;SDS011;62004;42.566;23.164;2022-12-24T14:26:32;14.88;;;6.57;;
73697;SDS011;62004;42.566;23.164;2022-12-24T14:29:05;18.05;;;10.52;;
73697;SDS011;62004;42.566;23.164;2022-12-24T14:31:36;28.80;;;15.40;;
73697;SDS011;62004;42.566;23.164;2022-12-24T14:34:11;31.55;;;17.13;;
73697;SDS011;62004;42.566;23.164;2022-12-24T14:36:37;39.65;;;17.75;;
73697;SDS011;62004;42.566;23.164;2022-12-24T14:39:04;55.75;;;29.60;;
73697;SDS011;62004;42.566;23.164;2022-12-24T14:41:42;64.13;;;31.85;;
73697;SDS011;62004;42.566;23.164;2022-12-24T14:52:58;37.10;;;19.42;;
73697;SDS011;62004;42.566;23.164;2022-12-24T14:55:37;34.55;;;18.77;;
73697;SDS011;62004;42.566;23.164;2022-12-24T14:58:24;34.90;;;16.98;;
73697;SDS011;62004;42.566;23.164;2022-12-24T15:00:50;26.17;;;14.48;;
73697;SDS011;62004;42.566;23.164;2022-12-24T15:03:18;16.17;;;9.45;;
73697;SDS011;62004;42.566;23.164;2022-12-24T15:06:02;22.17;;;10.57;;
73697;SDS011;62004;42.566;23.164;2022-12-24T15:08:31;17.67;;;5.82;;
73697;SDS011;62004;42.566;23.164;2022-12-24T15:11:02;6.18;;;3.42;;
73697;SDS011;62004;42.566;23.164;2022-12-24T15:13:30;4.55;;;2.95;;
73697;SDS011;62004;42.566;23.164;2022-12-24T15:15:58;3.90;;;3.10;;
73697;SDS011;62004;42.566;23.164;2022-12-24T15:18:25;6.80;;;3.40;;
73697;SDS011;62004;42.566;23.164;2022-12-24T15:20:54;6.38;;;3.72;;
73697;SDS011;62004;42.566;23.164;2022-12-24T15:23:29;7.20;;;4.20;;
73697;SDS011;62004;42.566;23.164;2022-12-24T15:28:43;8.45;;;5.25;;
73697;SDS011;62004;42.566;23.164;2022-12-24T15:31:18;10.50;;;7.13;;
73697;SDS011;62004;42.566;23.164;2022-12-24T15:33:52;13.98;;;7.93;;
73697;SDS011;62004;42.566;23.164;2022-12-24T15:36:33;21.15;;;10.05;;
73697;SDS011;62004;42.566;23.164;2022-12-24T15:41:38;30.00;;;14.02;;
73697;SDS011;62004;42.566;23.164;2022-12-24T15:44:26;29.02;;;17.40;;
73697;SDS011;62004;42.566;23.164;2022-12-24T15:46:59;34.15;;;17.08;;
73697;SDS011;62004;42.566;23.164;2022-12-24T15:49:26;26.75;;;14.02;;
73697;SDS011;62004;42.566;23.164;2022-12-24T15:51:52;19.45;;;10.20;;
73697;SDS011;62004;42.566;23.164;2022-12-24T15:54:19;13.68;;;7.60;;
73697;SDS011;62004;42.566;23.164;2022-12-24T15:56:45;12.30;;;6.93;;
73697;SDS011;62004;42.566;23.164;2022-12-24T16:01:37;14.00;;;7.15;;
73697;SDS011;62004;42.566;23.164;2022-12-24T16:04:13;24.40;;;12.77;;
73697;SDS011;62004;42.566;23.164;2022-12-24T16:06:59;7.75;;;4.63;;
73697;SDS011;62004;42.566;23.164;2022-12-24T16:11:57;11.57;;;5.20;;
73697;SDS011;62004;42.566;23.164;2022-12-24T16:14:23;11.60;;;7.88;;
73697;SDS011;62004;42.566;23.164;2022-12-24T16:16:49;11.60;;;7.35;;
73697;SDS011;62004;42.566;23.164;2022-12-24T16:19:21;18.92;;;11.15;;
73697;SDS011;62004;42.566;23.164;2022-12-24T16:21:55;30.42;;;18.25;;
73697;SDS011;62004;42.566;23.164;2022-12-24T16:24:31;39.47;;;23.90;;
73697;SDS011;62004;42.566;23.164;2022-12-24T16:26:59;38.67;;;22.05;;
73697;SDS011;62004;42.566;23.164;2022-12-24T16:29:24;34.80;;;20.30;;
73697;SDS011;62004;42.566;23.164;2022-12-24T16:34:18;30.33;;;17.75;;
73697;SDS011;62004;42.566;23.164;2022-12-24T16:36:45;19.60;;;11.77;;
73697;SDS011;62004;42.566;23.164;2022-12-24T16:41:54;4.45;;;3.20;;
73697;SDS011;62004;42.566;23.164;2022-12-24T16:44:39;6.70;;;3.70;;
73697;SDS011;62004;42.566;23.164;2022-12-24T16:47:08;8.70;;;4.30;;
73697;SDS011;62004;42.566;23.164;2022-12-24T16:49:36;6.70;;;4.15;;
73697;SDS011;62004;42.566;23.164;2022-12-24T16:52:03;7.53;;;4.55;;
73697;SDS011;62004;42.566;23.164;2022-12-24T16:54:29;13.93;;;7.63;;